sensor_id;sensor_type;location;lat;lon;timestamp;P1;durP1;ratioP1;P2;durP2;ratioP2
56039;SDS011;43937;41.366;2.072;2024-03-23T00:53:36;22.63;;;8.80;;
56039;SDS011;43937;41.366;2.072;2024-03-23T00:56:02;22.73;;;9.00;;
56039;SDS011;43937;41.366;2.072;2024-03-23T00:58:28;18.77;;;8.57;;
56039;SDS011;43937;41.366;2.072;2024-03-23T01:00:53;19.47;;;8.57;;
56039;SDS011;43937;41.366;2.072;2024-03-23T01:03:19;25.48;;;9.32;;
56039;SDS011;43937;41.366;2.072;2024-03-23T01:05:44;24.73;;;9.70;;
56039;SDS011;43937;41.366;2.072;2024-03-23T01:08:09;21.95;;;8.90;;
56039;SDS011;43937;41.366;2.072;2024-03-23T01:10:35;20.13;;;8.73;;
56039;SDS011;43937;41.366;2.072;2024-03-23T01:13:00;24.23;;;9.07;;
56039;SDS011;43937;41.366;2.072;2024-03-23T01:15:26;20.07;;;8.70;;
56039;SDS011;43937;41.366;2.072;2024-03-23T01:17:51;22.07;;;8.50;;
56039;SDS011;43937;41.366;2.072;2024-03-23T01:20:16;19.98;;;8.38;;
56039;SDS011;43937;41.366;2.072;2024-03-23T01:22:42;20.13;;;8.50;;
56039;SDS011;43937;41.366;2.072;2024-03-23T01:25:07;25.05;;;8.63;;
56039;SDS011;43937;41.366;2.072;2024-03-23T01:27:33;21.97;;;7.87;;
56039;SDS011;43937;41.366;2.072;2024-03-23T01:29:59;24.30;;;7.78;;
56039;SDS011;43937;41.366;2.072;2024-03-23T01:32:24;25.93;;;8.60;;
56039;SDS011;43937;41.366;2.072;2024-03-23T01:34:50;22.40;;;8.30;;
56039;SDS011;43937;41.366;2.072;2024-03-23T01:37:15;24.33;;;8.50;;
56039;SDS011;43937;41.366;2.072;2024-03-23T01:39:40;24.03;;;8.37;;
56039;SDS011;43937;41.366;2.072;2024-03-23T01:42:06;17.73;;;7.93;;
56039;SDS011;43937;41.366;2.072;2024-03-23T01:44:31;22.27;;;8.40;;
56039;SDS011;43937;41.366;2.072;2024-03-23T01:46:57;19.00;;;7.95;;
56039;SDS011;43937;41.366;2.072;2024-03-23T01:49:22;15.83;;;8.40;;
56039;SDS011;43937;41.366;2.072;2024-03-23T01:51:48;20.63;;;8.47;;
56039;SDS011;43937;41.366;2.072;2024-03-23T01:54:14;19.05;;;8.50;;
56039;SDS011;43937;41.366;2.072;2024-03-23T01:56:40;23.13;;;8.25;;
56039;SDS011;43937;41.366;2.072;2024-03-23T01:59:06;21.70;;;7.85;;
56039;SDS011;43937;41.366;2.072;2024-03-23T02:01:32;20.77;;;8.45;;
56039;SDS011;43937;41.366;2.072;2024-03-23T02:04:00;20.17;;;8.10;;
56039;SDS011;43937;41.366;2.072;2024-03-23T02:06:26;19.63;;;7.70;;
56039;SDS011;43937;41.366;2.072;2024-03-23T02:08:51;19.97;;;7.50;;
56039;SDS011;43937;41.366;2.072;2024-03-23T02:11:17;19.80;;;7.57;;
56039;SDS011;43937;41.366;2.072;2024-03-23T02:13:42;18.67;;;7.37;;
56039;SDS011;43937;41.366;2.072;2024-03-23T02:16:08;17.92;;;7.50;;
56039;SDS011;43937;41.366;2.072;2024-03-23T02:18:33;23.10;;;7.00;;
56039;SDS011;43937;41.366;2.072;2024-03-23T02:20:59;23.30;;;6.80;;
56039;SDS011;43937;41.366;2.072;2024-03-23T02:23:24;18.77;;;6.47;;
56039;SDS011;43937;41.366;2.072;2024-03-23T02:25:50;17.58;;;6.20;;
56039;SDS011;43937;41.366;2.072;2024-03-23T02:28:15;17.27;;;6.03;;
56039;SDS011;43937;41.366;2.072;2024-03-23T02:30:42;17.77;;;6.25;;
56039;SDS011;43937;41.366;2.072;2024-03-23T02:33:07;20.73;;;6.35;;
56039;SDS011;43937;41.366;2.072;2024-03-23T02:35:33;21.67;;;6.30;;
56039;SDS011;43937;41.366;2.072;2024-03-23T02:37:59;18.70;;;6.47;;
56039;SDS011;43937;41.366;2.072;2024-03-23T02:40:24;19.30;;;6.80;;
56039;SDS011;43937;41.366;2.072;2024-03-23T02:42:50;18.17;;;6.70;;
56039;SDS011;43937;41.366;2.072;2024-03-23T02:45:16;17.45;;;6.30;;
56039;SDS011;43937;41.366;2.072;2024-03-23T02:47:41;18.57;;;6.40;;
56039;SDS011;43937;41.366;2.072;2024-03-23T02:50:07;17.50;;;6.35;;
56039;SDS011;43937;41.366;2.072;2024-03-23T02:52:33;20.30;;;6.20;;
56039;SDS011;43937;41.366;2.072;2024-03-23T02:54:59;19.83;;;6.00;;
56039;SDS011;43937;41.366;2.072;2024-03-23T02:57:24;17.33;;;6.50;;
56039;SDS011;43937;41.366;2.072;2024-03-23T02:59:50;18.38;;;6.10;;
56039;SDS011;43937;41.366;2.072;2024-03-23T03:02:15;18.97;;;6.13;;
56039;SDS011;43937;41.366;2.072;2024-03-23T03:04:41;18.55;;;6.07;;
56039;SDS011;43937;41.366;2.072;2024-03-23T03:07:07;17.30;;;6.00;;
56039;SDS011;43937;41.366;2.072;2024-03-23T03:09:32;14.77;;;5.97;;
56039;SDS011;43937;41.366;2.072;2024-03-23T03:12:00;16.47;;;6.90;;
56039;SDS011;43937;41.366;2.072;2024-03-23T03:14:25;17.63;;;6.83;;
56039;SDS011;43937;41.366;2.072;2024-03-23T03:16:51;19.57;;;7.10;;
56039;SDS011;43937;41.366;2.072;2024-03-23T03:19:16;18.33;;;7.60;;
56039;SDS011;43937;41.366;2.072;2024-03-23T03:21:42;22.83;;;7.75;;
56039;SDS011;43937;41.366;2.072;2024-03-23T03:24:08;15.37;;;7.10;;
56039;SDS011;43937;41.366;2.072;2024-03-23T03:26:33;22.77;;;7.95;;
56039;SDS011;43937;41.366;2.072;2024-03-23T03:28:58;20.00;;;7.50;;
56039;SDS011;43937;41.366;2.072;2024-03-23T03:31:24;19.60;;;7.50;;
56039;SDS011;43937;41.366;2.072;2024-03-23T03:33:50;18.98;;;7.55;;
56039;SDS011;43937;41.366;2.072;2024-03-23T03:36:18;22.08;;;7.55;;
56039;SDS011;43937;41.366;2.072;2024-03-23T03:38:43;15.63;;;7.50;;
56039;SDS011;43937;41.366;2.072;2024-03-23T03:41:09;22.67;;;7.80;;
56039;SDS011;43937;41.366;2.072;2024-03-23T03:43:34;17.90;;;7.53;;
56039;SDS011;43937;41.366;2.072;2024-03-23T03:46:00;17.80;;;7.30;;
56039;SDS011;43937;41.366;2.072;2024-03-23T03:48:26;21.77;;;7.93;;
56039;SDS011;43937;41.366;2.072;2024-03-23T03:50:52;16.60;;;7.47;;
56039;SDS011;43937;41.366;2.072;2024-03-23T03:53:18;17.80;;;7.45;;
56039;SDS011;43937;41.366;2.072;2024-03-23T03:55:44;19.95;;;8.00;;
56039;SDS011;43937;41.366;2.072;2024-03-23T03:58:09;18.03;;;7.57;;
56039;SDS011;43937;41.366;2.072;2024-03-23T04:00:35;23.63;;;8.00;;
56039;SDS011;43937;41.366;2.072;2024-03-23T04:03:01;20.23;;;8.02;;
56039;SDS011;43937;41.366;2.072;2024-03-23T04:05:26;17.52;;;7.40;;
56039;SDS011;43937;41.366;2.072;2024-03-23T04:07:52;16.48;;;7.35;;
56039;SDS011;43937;41.366;2.072;2024-03-23T04:10:18;20.77;;;7.10;;
56039;SDS011;43937;41.366;2.072;2024-03-23T04:12:44;17.90;;;7.10;;
56039;SDS011;43937;41.366;2.072;2024-03-23T04:15:10;19.35;;;7.03;;
56039;SDS011;43937;41.366;2.072;2024-03-23T04:17:35;15.43;;;6.60;;
56039;SDS011;43937;41.366;2.072;2024-03-23T04:20:01;20.83;;;6.95;;
56039;SDS011;43937;41.366;2.072;2024-03-23T04:22:34;14.73;;;5.93;;
56039;SDS011;43937;41.366;2.072;2024-03-23T04:25:00;16.05;;;6.65;;
56039;SDS011;43937;41.366;2.072;2024-03-23T04:27:31;13.88;;;6.28;;
56039;SDS011;43937;41.366;2.072;2024-03-23T04:30:00;18.08;;;6.60;;
56039;SDS011;43937;41.366;2.072;2024-03-23T04:32:26;19.42;;;6.70;;
56039;SDS011;43937;41.366;2.072;2024-03-23T04:34:52;21.92;;;6.57;;
56039;SDS011;43937;41.366;2.072;2024-03-23T04:37:18;15.48;;;6.18;;
56039;SDS011;43937;41.366;2.072;2024-03-23T04:39:44;19.47;;;6.87;;
56039;SDS011;43937;41.366;2.072;2024-03-23T04:42:10;17.97;;;7.03;;
56039;SDS011;43937;41.366;2.072;2024-03-23T04:44:35;23.23;;;6.60;;
56039;SDS011;43937;41.366;2.072;2024-03-23T04:47:00;17.90;;;6.73;;
56039;SDS011;43937;41.366;2.072;2024-03-23T04:49:26;20.50;;;7.00;;
56039;SDS011;43937;41.366;2.072;2024-03-23T04:51:52;19.57;;;6.87;;
56039;SDS011;43937;41.366;2.072;2024-03-23T04:54:17;15.57;;;6.73;;
56039;SDS011;43937;41.366;2.072;2024-03-23T04:56:43;20.43;;;6.87;;
56039;SDS011;43937;41.366;2.072;2024-03-23T04:59:08;21.00;;;6.95;;
56039;SDS011;43937;41.366;2.072;2024-03-23T05:01:34;19.33;;;7.13;;
56039;SDS011;43937;41.366;2.072;2024-03-23T05:04:00;17.85;;;6.90;;
56039;SDS011;43937;41.366;2.072;2024-03-23T05:06:26;21.30;;;6.95;;
56039;SDS011;43937;41.366;2.072;2024-03-23T05:08:52;17.35;;;7.07;;
56039;SDS011;43937;41.366;2.072;2024-03-23T05:11:17;18.23;;;6.90;;
56039;SDS011;43937;41.366;2.072;2024-03-23T05:13:43;18.40;;;6.63;;
56039;SDS011;43937;41.366;2.072;2024-03-23T05:16:09;16.55;;;6.80;;
56039;SDS011;43937;41.366;2.072;2024-03-23T05:18:34;14.07;;;6.30;;
56039;SDS011;43937;41.366;2.072;2024-03-23T05:21:00;16.92;;;6.90;;
56039;SDS011;43937;41.366;2.072;2024-03-23T05:23:26;18.80;;;7.40;;
56039;SDS011;43937;41.366;2.072;2024-03-23T05:25:53;18.83;;;7.20;;
56039;SDS011;43937;41.366;2.072;2024-03-23T05:28:19;20.27;;;7.72;;
56039;SDS011;43937;41.366;2.072;2024-03-23T05:30:52;18.05;;;6.95;;
56039;SDS011;43937;41.366;2.072;2024-03-23T05:33:19;25.13;;;7.93;;
56039;SDS011;43937;41.366;2.072;2024-03-23T05:35:45;22.05;;;7.10;;
56039;SDS011;43937;41.366;2.072;2024-03-23T05:38:11;20.55;;;7.05;;
56039;SDS011;43937;41.366;2.072;2024-03-23T05:40:36;18.95;;;6.85;;
56039;SDS011;43937;41.366;2.072;2024-03-23T05:43:05;19.02;;;7.07;;
56039;SDS011;43937;41.366;2.072;2024-03-23T05:45:31;21.20;;;7.50;;
56039;SDS011;43937;41.366;2.072;2024-03-23T05:47:56;20.10;;;7.20;;
56039;SDS011;43937;41.366;2.072;2024-03-23T05:50:22;17.97;;;7.00;;
56039;SDS011;43937;41.366;2.072;2024-03-23T05:52:48;19.48;;;6.88;;
56039;SDS011;43937;41.366;2.072;2024-03-23T05:55:14;16.95;;;6.20;;
56039;SDS011;43937;41.366;2.072;2024-03-23T05:57:43;18.65;;;6.20;;
56039;SDS011;43937;41.366;2.072;2024-03-23T06:00:08;15.02;;;6.18;;
56039;SDS011;43937;41.366;2.072;2024-03-23T06:02:41;19.13;;;6.20;;
56039;SDS011;43937;41.366;2.072;2024-03-23T06:05:11;20.50;;;6.68;;
56039;SDS011;43937;41.366;2.072;2024-03-23T06:07:37;17.37;;;6.57;;
56039;SDS011;43937;41.366;2.072;2024-03-23T06:10:03;19.73;;;7.70;;
56039;SDS011;43937;41.366;2.072;2024-03-23T06:12:29;18.83;;;8.65;;
56039;SDS011;43937;41.366;2.072;2024-03-23T06:14:54;24.35;;;6.63;;
56039;SDS011;43937;41.366;2.072;2024-03-23T06:17:19;18.87;;;6.20;;
56039;SDS011;43937;41.366;2.072;2024-03-23T06:19:45;18.75;;;6.72;;
56039;SDS011;43937;41.366;2.072;2024-03-23T06:22:10;22.63;;;6.25;;
56039;SDS011;43937;41.366;2.072;2024-03-23T06:24:36;15.57;;;5.70;;
56039;SDS011;43937;41.366;2.072;2024-03-23T06:27:01;18.20;;;5.85;;
56039;SDS011;43937;41.366;2.072;2024-03-23T06:29:27;18.50;;;6.20;;
56039;SDS011;43937;41.366;2.072;2024-03-23T06:31:55;15.10;;;5.80;;
56039;SDS011;43937;41.366;2.072;2024-03-23T06:34:21;18.15;;;5.80;;
56039;SDS011;43937;41.366;2.072;2024-03-23T06:36:47;20.63;;;6.63;;
56039;SDS011;43937;41.366;2.072;2024-03-23T06:39:14;20.83;;;6.60;;
56039;SDS011;43937;41.366;2.072;2024-03-23T06:41:51;18.83;;;6.78;;
56039;SDS011;43937;41.366;2.072;2024-03-23T06:44:17;16.17;;;6.55;;
56039;SDS011;43937;41.366;2.072;2024-03-23T06:46:44;16.42;;;6.38;;
56039;SDS011;43937;41.366;2.072;2024-03-23T06:49:09;22.17;;;6.53;;
56039;SDS011;43937;41.366;2.072;2024-03-23T06:51:35;18.90;;;5.70;;
56039;SDS011;43937;41.366;2.072;2024-03-23T06:54:01;16.00;;;5.13;;
56039;SDS011;43937;41.366;2.072;2024-03-23T06:56:28;19.13;;;5.03;;
56039;SDS011;43937;41.366;2.072;2024-03-23T06:58:54;14.60;;;4.87;;
56039;SDS011;43937;41.366;2.072;2024-03-23T07:01:19;21.73;;;4.90;;
56039;SDS011;43937;41.366;2.072;2024-03-23T07:03:44;17.90;;;4.53;;
56039;SDS011;43937;41.366;2.072;2024-03-23T07:06:10;19.57;;;4.40;;
56039;SDS011;43937;41.366;2.072;2024-03-23T07:08:35;14.03;;;4.50;;
56039;SDS011;43937;41.366;2.072;2024-03-23T07:11:01;12.85;;;3.97;;
56039;SDS011;43937;41.366;2.072;2024-03-23T07:13:27;16.83;;;4.60;;
56039;SDS011;43937;41.366;2.072;2024-03-23T07:15:53;16.23;;;4.50;;
56039;SDS011;43937;41.366;2.072;2024-03-23T07:18:20;19.88;;;4.95;;
56039;SDS011;43937;41.366;2.072;2024-03-23T07:20:53;15.70;;;4.70;;
56039;SDS011;43937;41.366;2.072;2024-03-23T07:23:19;17.13;;;5.40;;
56039;SDS011;43937;41.366;2.072;2024-03-23T07:25:44;15.75;;;5.10;;
56039;SDS011;43937;41.366;2.072;2024-03-23T07:28:10;22.03;;;6.53;;
56039;SDS011;43937;41.366;2.072;2024-03-23T07:30:35;17.80;;;6.72;;
56039;SDS011;43937;41.366;2.072;2024-03-23T07:33:01;16.37;;;6.30;;
56039;SDS011;43937;41.366;2.072;2024-03-23T07:35:26;18.67;;;7.50;;
56039;SDS011;43937;41.366;2.072;2024-03-23T07:37:51;20.70;;;7.63;;
56039;SDS011;43937;41.366;2.072;2024-03-23T07:40:17;22.75;;;7.38;;
56039;SDS011;43937;41.366;2.072;2024-03-23T07:42:42;22.77;;;7.27;;
56039;SDS011;43937;41.366;2.072;2024-03-23T07:45:08;18.73;;;7.00;;
56039;SDS011;43937;41.366;2.072;2024-03-23T07:47:34;17.40;;;6.45;;
56039;SDS011;43937;41.366;2.072;2024-03-23T07:49:59;20.23;;;6.20;;
56039;SDS011;43937;41.366;2.072;2024-03-23T07:52:27;18.33;;;6.25;;
56039;SDS011;43937;41.366;2.072;2024-03-23T07:54:54;19.07;;;7.60;;
56039;SDS011;43937;41.366;2.072;2024-03-23T07:57:19;19.40;;;7.10;;
56039;SDS011;43937;41.366;2.072;2024-03-23T07:59:45;17.20;;;5.87;;
56039;SDS011;43937;41.366;2.072;2024-03-23T08:02:10;23.25;;;8.02;;
56039;SDS011;43937;41.366;2.072;2024-03-23T08:04:36;18.80;;;9.50;;
56039;SDS011;43937;41.366;2.072;2024-03-23T08:07:01;22.37;;;5.90;;
56039;SDS011;43937;41.366;2.072;2024-03-23T08:09:27;19.60;;;6.67;;
56039;SDS011;43937;41.366;2.072;2024-03-23T08:11:52;15.47;;;5.70;;
56039;SDS011;43937;41.366;2.072;2024-03-23T08:14:18;17.30;;;6.20;;
56039;SDS011;43937;41.366;2.072;2024-03-23T08:16:44;16.55;;;5.68;;
56039;SDS011;43937;41.366;2.072;2024-03-23T08:19:13;17.83;;;5.90;;
56039;SDS011;43937;41.366;2.072;2024-03-23T08:21:39;20.08;;;6.47;;
56039;SDS011;43937;41.366;2.072;2024-03-23T08:24:05;16.63;;;6.27;;
56039;SDS011;43937;41.366;2.072;2024-03-23T08:26:30;20.43;;;6.30;;
56039;SDS011;43937;41.366;2.072;2024-03-23T08:28:56;15.27;;;6.60;;
56039;SDS011;43937;41.366;2.072;2024-03-23T08:31:22;19.17;;;6.97;;
56039;SDS011;43937;41.366;2.072;2024-03-23T08:33:47;13.07;;;5.80;;
56039;SDS011;43937;41.366;2.072;2024-03-23T08:36:13;15.55;;;6.78;;
56039;SDS011;43937;41.366;2.072;2024-03-23T08:38:39;18.48;;;6.95;;
56039;SDS011;43937;41.366;2.072;2024-03-23T08:41:06;19.30;;;6.95;;
56039;SDS011;43937;41.366;2.072;2024-03-23T08:43:36;45.83;;;24.42;;
56039;SDS011;43937;41.366;2.072;2024-03-23T08:48:38;54.45;;;31.73;;
56039;SDS011;43937;41.366;2.072;2024-03-23T08:51:05;18.63;;;7.18;;
56039;SDS011;43937;41.366;2.072;2024-03-23T08:53:34;24.92;;;11.75;;
56039;SDS011;43937;41.366;2.072;2024-03-23T08:56:01;17.95;;;7.10;;
56039;SDS011;43937;41.366;2.072;2024-03-23T08:58:27;21.58;;;6.45;;
56039;SDS011;43937;41.366;2.072;2024-03-23T09:00:54;18.00;;;7.10;;
56039;SDS011;43937;41.366;2.072;2024-03-23T09:03:24;20.45;;;6.97;;
56039;SDS011;43937;41.366;2.072;2024-03-23T09:05:50;22.90;;;8.35;;
56039;SDS011;43937;41.366;2.072;2024-03-23T09:08:16;20.85;;;7.47;;
56039;SDS011;43937;41.366;2.072;2024-03-23T09:10:42;22.90;;;7.70;;
56039;SDS011;43937;41.366;2.072;2024-03-23T09:13:08;19.27;;;7.75;;
56039;SDS011;43937;41.366;2.072;2024-03-23T09:15:34;16.03;;;6.20;;
56039;SDS011;43937;41.366;2.072;2024-03-23T09:18:02;17.63;;;6.50;;
56039;SDS011;43937;41.366;2.072;2024-03-23T09:20:28;14.88;;;6.80;;
56039;SDS011;43937;41.366;2.072;2024-03-23T09:22:53;19.27;;;7.57;;
56039;SDS011;43937;41.366;2.072;2024-03-23T09:25:19;19.23;;;7.10;;
56039;SDS011;43937;41.366;2.072;2024-03-23T09:27:46;21.40;;;7.97;;
56039;SDS011;43937;41.366;2.072;2024-03-23T09:30:12;26.23;;;7.90;;
56039;SDS011;43937;41.366;2.072;2024-03-23T09:32:38;27.58;;;7.90;;
56039;SDS011;43937;41.366;2.072;2024-03-23T09:35:04;27.63;;;11.98;;
56039;SDS011;43937;41.366;2.072;2024-03-23T09:37:29;21.38;;;8.25;;
56039;SDS011;43937;41.366;2.072;2024-03-23T09:39:55;29.57;;;7.70;;
56039;SDS011;43937;41.366;2.072;2024-03-23T09:42:20;23.77;;;7.25;;
56039;SDS011;43937;41.366;2.072;2024-03-23T09:44:46;21.33;;;6.83;;
56039;SDS011;43937;41.366;2.072;2024-03-23T09:47:15;21.10;;;7.00;;
56039;SDS011;43937;41.366;2.072;2024-03-23T09:49:41;25.52;;;6.97;;
56039;SDS011;43937;41.366;2.072;2024-03-23T09:52:07;18.15;;;7.28;;
56039;SDS011;43937;41.366;2.072;2024-03-23T09:54:33;19.90;;;7.33;;
56039;SDS011;43937;41.366;2.072;2024-03-23T09:56:58;22.63;;;7.50;;
56039;SDS011;43937;41.366;2.072;2024-03-23T09:59:24;23.50;;;7.40;;
56039;SDS011;43937;41.366;2.072;2024-03-23T10:01:51;18.30;;;6.78;;
56039;SDS011;43937;41.366;2.072;2024-03-23T10:04:37;22.37;;;6.70;;
56039;SDS011;43937;41.366;2.072;2024-03-23T10:07:12;22.37;;;6.83;;
56039;SDS011;43937;41.366;2.072;2024-03-23T10:09:43;23.58;;;7.20;;
56039;SDS011;43937;41.366;2.072;2024-03-23T10:12:09;22.80;;;7.63;;
56039;SDS011;43937;41.366;2.072;2024-03-23T10:14:35;19.75;;;7.63;;
56039;SDS011;43937;41.366;2.072;2024-03-23T10:17:11;25.23;;;9.70;;
56039;SDS011;43937;41.366;2.072;2024-03-23T10:19:50;19.23;;;8.10;;
56039;SDS011;43937;41.366;2.072;2024-03-23T10:22:18;25.48;;;12.55;;
56039;SDS011;43937;41.366;2.072;2024-03-23T10:24:48;25.48;;;10.10;;
56039;SDS011;43937;41.366;2.072;2024-03-23T10:27:18;25.67;;;9.20;;
56039;SDS011;43937;41.366;2.072;2024-03-23T10:29:44;19.00;;;8.27;;
56039;SDS011;43937;41.366;2.072;2024-03-23T10:32:11;22.27;;;7.57;;
56039;SDS011;43937;41.366;2.072;2024-03-23T10:34:38;18.30;;;7.45;;
56039;SDS011;43937;41.366;2.072;2024-03-23T10:37:04;16.83;;;7.60;;
56039;SDS011;43937;41.366;2.072;2024-03-23T10:39:31;17.00;;;7.60;;
56039;SDS011;43937;41.366;2.072;2024-03-23T10:42:00;20.35;;;7.43;;
56039;SDS011;43937;41.366;2.072;2024-03-23T10:44:27;18.77;;;7.25;;
56039;SDS011;43937;41.366;2.072;2024-03-23T10:46:55;19.25;;;7.10;;
56039;SDS011;43937;41.366;2.072;2024-03-23T10:49:25;18.17;;;6.63;;
56039;SDS011;43937;41.366;2.072;2024-03-23T10:51:52;18.53;;;7.13;;
56039;SDS011;43937;41.366;2.072;2024-03-23T10:54:18;19.25;;;7.10;;
56039;SDS011;43937;41.366;2.072;2024-03-23T10:56:44;18.73;;;6.75;;
56039;SDS011;43937;41.366;2.072;2024-03-23T10:59:12;17.17;;;6.30;;
56039;SDS011;43937;41.366;2.072;2024-03-23T11:01:53;16.80;;;7.10;;
56039;SDS011;43937;41.366;2.072;2024-03-23T11:07:01;15.43;;;6.55;;
56039;SDS011;43937;41.366;2.072;2024-03-23T11:14:46;17.03;;;6.57;;
56039;SDS011;43937;41.366;2.072;2024-03-23T11:17:17;16.30;;;6.10;;
56039;SDS011;43937;41.366;2.072;2024-03-23T11:19:43;15.00;;;5.78;;
56039;SDS011;43937;41.366;2.072;2024-03-23T11:22:08;15.48;;;4.85;;
56039;SDS011;43937;41.366;2.072;2024-03-23T11:24:34;18.23;;;4.97;;
56039;SDS011;43937;41.366;2.072;2024-03-23T11:26:59;16.02;;;5.05;;
56039;SDS011;43937;41.366;2.072;2024-03-23T11:29:26;16.63;;;5.50;;
56039;SDS011;43937;41.366;2.072;2024-03-23T11:31:52;15.77;;;6.47;;
56039;SDS011;43937;41.366;2.072;2024-03-23T11:34:19;16.50;;;5.30;;
56039;SDS011;43937;41.366;2.072;2024-03-23T11:36:46;15.57;;;5.32;;
56039;SDS011;43937;41.366;2.072;2024-03-23T11:39:15;20.98;;;5.93;;
56039;SDS011;43937;41.366;2.072;2024-03-23T11:44:23;16.00;;;4.80;;
56039;SDS011;43937;41.366;2.072;2024-03-23T11:46:50;18.27;;;4.90;;
56039;SDS011;43937;41.366;2.072;2024-03-23T11:49:26;17.38;;;5.05;;
56039;SDS011;43937;41.366;2.072;2024-03-23T11:51:54;15.55;;;5.50;;
56039;SDS011;43937;41.366;2.072;2024-03-23T11:54:21;13.63;;;5.10;;
56039;SDS011;43937;41.366;2.072;2024-03-23T11:57:03;14.65;;;4.97;;
56039;SDS011;43937;41.366;2.072;2024-03-23T11:59:39;17.77;;;5.10;;
56039;SDS011;43937;41.366;2.072;2024-03-23T12:02:09;15.63;;;4.87;;
56039;SDS011;43937;41.366;2.072;2024-03-23T12:04:36;15.93;;;5.10;;
56039;SDS011;43937;41.366;2.072;2024-03-23T12:07:18;17.48;;;4.70;;
56039;SDS011;43937;41.366;2.072;2024-03-23T12:09:46;19.38;;;5.50;;
56039;SDS011;43937;41.366;2.072;2024-03-23T12:12:15;24.23;;;6.18;;
56039;SDS011;43937;41.366;2.072;2024-03-23T12:14:45;19.23;;;6.20;;
56039;SDS011;43937;41.366;2.072;2024-03-23T12:17:26;15.88;;;6.00;;
56039;SDS011;43937;41.366;2.072;2024-03-23T12:19:52;15.43;;;5.67;;
56039;SDS011;43937;41.366;2.072;2024-03-23T12:22:21;14.68;;;5.10;;
56039;SDS011;43937;41.366;2.072;2024-03-23T12:24:47;15.23;;;5.50;;
56039;SDS011;43937;41.366;2.072;2024-03-23T12:27:13;18.67;;;5.85;;
56039;SDS011;43937;41.366;2.072;2024-03-23T12:29:39;17.40;;;6.03;;
56039;SDS011;43937;41.366;2.072;2024-03-23T12:32:06;14.95;;;4.80;;
56039;SDS011;43937;41.366;2.072;2024-03-23T12:34:32;16.27;;;4.50;;
56039;SDS011;43937;41.366;2.072;2024-03-23T12:36:58;17.40;;;5.28;;
56039;SDS011;43937;41.366;2.072;2024-03-23T12:39:23;13.80;;;4.75;;
56039;SDS011;43937;41.366;2.072;2024-03-23T12:41:49;15.30;;;4.33;;
56039;SDS011;43937;41.366;2.072;2024-03-23T12:44:15;11.82;;;3.92;;
56039;SDS011;43937;41.366;2.072;2024-03-23T12:46:41;12.05;;;4.22;;
56039;SDS011;43937;41.366;2.072;2024-03-23T12:49:07;14.18;;;3.83;;
56039;SDS011;43937;41.366;2.072;2024-03-23T12:51:32;12.07;;;3.33;;
56039;SDS011;43937;41.366;2.072;2024-03-23T12:53:58;12.90;;;3.70;;
56039;SDS011;43937;41.366;2.072;2024-03-23T12:56:24;11.20;;;3.23;;
56039;SDS011;43937;41.366;2.072;2024-03-23T12:58:49;9.10;;;3.33;;
56039;SDS011;43937;41.366;2.072;2024-03-23T13:01:16;9.15;;;2.92;;
56039;SDS011;43937;41.366;2.072;2024-03-23T13:03:42;13.48;;;4.10;;
56039;SDS011;43937;41.366;2.072;2024-03-23T13:06:09;10.52;;;3.80;;
56039;SDS011;43937;41.366;2.072;2024-03-23T13:08:35;10.93;;;4.23;;
56039;SDS011;43937;41.366;2.072;2024-03-23T13:11:01;13.70;;;4.40;;
56039;SDS011;43937;41.366;2.072;2024-03-23T13:13:26;11.00;;;4.40;;
56039;SDS011;43937;41.366;2.072;2024-03-23T13:15:51;10.63;;;4.07;;
56039;SDS011;43937;41.366;2.072;2024-03-23T13:18:17;11.53;;;4.30;;
56039;SDS011;43937;41.366;2.072;2024-03-23T13:20:42;13.32;;;4.30;;
56039;SDS011;43937;41.366;2.072;2024-03-23T13:23:08;12.87;;;5.10;;
56039;SDS011;43937;41.366;2.072;2024-03-23T13:25:33;16.35;;;4.30;;
56039;SDS011;43937;41.366;2.072;2024-03-23T13:27:59;11.60;;;4.20;;
56039;SDS011;43937;41.366;2.072;2024-03-23T13:30:26;12.95;;;4.70;;
56039;SDS011;43937;41.366;2.072;2024-03-23T13:32:51;11.43;;;4.00;;
56039;SDS011;43937;41.366;2.072;2024-03-23T13:35:17;12.32;;;4.32;;
56039;SDS011;43937;41.366;2.072;2024-03-23T13:37:43;11.40;;;3.90;;
56039;SDS011;43937;41.366;2.072;2024-03-23T13:40:08;8.63;;;4.20;;
56039;SDS011;43937;41.366;2.072;2024-03-23T13:42:34;11.55;;;4.07;;
56039;SDS011;43937;41.366;2.072;2024-03-23T13:44:59;12.67;;;4.23;;
56039;SDS011;43937;41.366;2.072;2024-03-23T13:47:25;8.90;;;3.92;;
56039;SDS011;43937;41.366;2.072;2024-03-23T13:49:50;13.50;;;4.17;;
56039;SDS011;43937;41.366;2.072;2024-03-23T13:52:16;13.75;;;4.80;;
56039;SDS011;43937;41.366;2.072;2024-03-23T13:54:43;15.10;;;5.00;;
56039;SDS011;43937;41.366;2.072;2024-03-23T13:57:11;13.20;;;6.18;;
56039;SDS011;43937;41.366;2.072;2024-03-23T13:59:36;11.63;;;4.87;;
56039;SDS011;43937;41.366;2.072;2024-03-23T14:02:02;11.13;;;4.60;;
56039;SDS011;43937;41.366;2.072;2024-03-23T14:04:27;11.43;;;4.67;;
56039;SDS011;43937;41.366;2.072;2024-03-23T14:06:52;13.00;;;4.78;;
56039;SDS011;43937;41.366;2.072;2024-03-23T14:09:18;12.70;;;5.27;;
56039;SDS011;43937;41.366;2.072;2024-03-23T14:11:47;12.68;;;4.93;;
56039;SDS011;43937;41.366;2.072;2024-03-23T14:14:13;12.90;;;4.53;;
56039;SDS011;43937;41.366;2.072;2024-03-23T14:16:43;11.70;;;4.55;;
56039;SDS011;43937;41.366;2.072;2024-03-23T14:19:09;13.43;;;4.90;;
56039;SDS011;43937;41.366;2.072;2024-03-23T14:21:34;14.27;;;4.93;;
56039;SDS011;43937;41.366;2.072;2024-03-23T14:24:00;11.73;;;5.13;;
56039;SDS011;43937;41.366;2.072;2024-03-23T14:26:26;11.47;;;5.20;;
56039;SDS011;43937;41.366;2.072;2024-03-23T14:28:52;13.27;;;5.00;;
56039;SDS011;43937;41.366;2.072;2024-03-23T14:31:17;11.10;;;5.30;;
56039;SDS011;43937;41.366;2.072;2024-03-23T14:33:43;12.20;;;5.50;;
56039;SDS011;43937;41.366;2.072;2024-03-23T14:36:15;13.07;;;5.28;;
56039;SDS011;43937;41.366;2.072;2024-03-23T14:38:47;14.55;;;5.30;;
56039;SDS011;43937;41.366;2.072;2024-03-23T14:41:15;13.60;;;5.50;;
56039;SDS011;43937;41.366;2.072;2024-03-23T14:43:41;13.03;;;5.77;;
56039;SDS011;43937;41.366;2.072;2024-03-23T14:46:12;15.07;;;5.35;;
56039;SDS011;43937;41.366;2.072;2024-03-23T14:48:39;11.63;;;5.68;;
56039;SDS011;43937;41.366;2.072;2024-03-23T14:51:06;16.25;;;5.10;;
56039;SDS011;43937;41.366;2.072;2024-03-23T14:53:35;17.40;;;5.25;;
56039;SDS011;43937;41.366;2.072;2024-03-23T14:56:03;17.50;;;5.35;;
56039;SDS011;43937;41.366;2.072;2024-03-23T14:58:29;14.53;;;5.27;;
56039;SDS011;43937;41.366;2.072;2024-03-23T15:01:04;13.45;;;5.90;;
56039;SDS011;43937;41.366;2.072;2024-03-23T15:03:34;16.42;;;6.07;;
56039;SDS011;43937;41.366;2.072;2024-03-23T15:05:59;17.58;;;6.03;;
56039;SDS011;43937;41.366;2.072;2024-03-23T15:08:26;17.97;;;7.13;;
56039;SDS011;43937;41.366;2.072;2024-03-23T15:10:53;21.60;;;7.18;;
56039;SDS011;43937;41.366;2.072;2024-03-23T15:13:18;17.15;;;6.35;;
56039;SDS011;43937;41.366;2.072;2024-03-23T15:15:44;14.67;;;6.73;;
56039;SDS011;43937;41.366;2.072;2024-03-23T15:18:13;14.07;;;6.88;;
56039;SDS011;43937;41.366;2.072;2024-03-23T15:20:53;15.57;;;6.87;;
56039;SDS011;43937;41.366;2.072;2024-03-23T15:23:18;16.05;;;6.90;;
56039;SDS011;43937;41.366;2.072;2024-03-23T15:25:44;15.90;;;6.97;;
56039;SDS011;43937;41.366;2.072;2024-03-23T15:28:09;16.40;;;6.77;;
56039;SDS011;43937;41.366;2.072;2024-03-23T15:30:35;20.23;;;6.82;;
56039;SDS011;43937;41.366;2.072;2024-03-23T15:33:00;15.37;;;6.60;;
56039;SDS011;43937;41.366;2.072;2024-03-23T15:35:26;16.47;;;6.33;;